createdAt,value
2018-12-20T00:00:44.466Z,27.43
2018-12-20T00:03:12.880Z,28.53
2018-12-20T00:05:41.343Z,29.40
2018-12-20T00:08:09.587Z,29.90
2018-12-20T00:10:37.881Z,25.27
2018-12-20T00:13:06.156Z,25.33
2018-12-20T00:15:34.396Z,29.00
2018-12-20T00:18:02.974Z,28.00
2018-12-20T00:20:31.400Z,31.20
2018-12-20T00:22:59.601Z,29.30
2018-12-20T00:25:28.140Z,23.80
2018-12-20T00:27:56.398Z,31.17
2018-12-20T00:30:24.673Z,29.37
2018-12-20T00:32:52.974Z,27.37
2018-12-20T00:35:21.257Z,31.70
2018-12-20T00:37:49.501Z,29.30
2018-12-20T00:40:17.714Z,22.23
2018-12-20T00:42:45.904Z,29.60
2018-12-20T00:45:14.151Z,24.80
2018-12-20T00:47:42.457Z,26.47
2018-12-20T00:50:10.600Z,24.10
2018-12-20T00:52:38.917Z,29.93
2018-12-20T00:55:07.432Z,25.77
2018-12-20T00:57:35.835Z,31.93
2018-12-20T01:00:05.360Z,31.70
2018-12-20T01:02:33.836Z,33.50
2018-12-20T01:05:02.183Z,25.30
2018-12-20T01:07:30.519Z,25.90
2018-12-20T01:09:58.765Z,23.87
2018-12-20T01:12:26.957Z,28.73
2018-12-20T01:14:55.304Z,30.33
2018-12-20T01:17:25.622Z,16.23
2018-12-20T01:19:53.820Z,31.10
2018-12-20T01:22:22.010Z,26.83
2018-12-20T01:24:50.283Z,23.80
2018-12-20T01:27:18.671Z,30.30
2018-12-20T01:29:46.923Z,28.70
2018-12-20T01:32:15.259Z,26.00
2018-12-20T01:34:43.563Z,27.10
2018-12-20T01:37:11.866Z,33.47
2018-12-20T01:39:40.278Z,23.03
2018-12-20T01:42:08.476Z,28.63
2018-12-20T01:44:36.635Z,22.47
2018-12-20T01:47:04.897Z,23.60
2018-12-20T01:49:33.309Z,23.83
2018-12-20T01:52:01.496Z,28.87
2018-12-20T01:54:29.919Z,32.03
2018-12-20T01:56:58.263Z,30.83
2018-12-20T01:59:26.855Z,26.13
2018-12-20T02:01:55.099Z,31.27
2018-12-20T02:04:23.251Z,30.57
2018-12-20T02:06:51.432Z,33.97
2018-12-20T02:09:19.755Z,27.43
2018-12-20T02:11:48.089Z,28.83
2018-12-20T02:14:16.313Z,26.77
2018-12-20T02:16:44.662Z,31.90
2018-12-20T02:19:12.908Z,25.00
2018-12-20T02:21:41.209Z,29.47
2018-12-20T02:24:09.497Z,33.23
2018-12-20T02:26:38.101Z,30.70
2018-12-20T02:29:06.651Z,19.60
2018-12-20T02:31:35.024Z,24.67
2018-12-20T02:34:03.521Z,31.40
2018-12-20T02:36:32.122Z,26.57
2018-12-20T02:39:00.397Z,29.73
2018-12-20T02:41:28.950Z,30.60
2018-12-20T02:43:57.347Z,31.40
2018-12-20T02:46:25.760Z,32.33
2018-12-20T02:48:54.219Z,27.53
2018-12-20T02:51:22.761Z,27.93
2018-12-20T02:53:51.141Z,19.73
2018-12-20T02:56:19.521Z,27.00
2018-12-20T02:58:47.866Z,20.33
2018-12-20T03:01:16.221Z,25.53
2018-12-20T03:03:44.454Z,30.87
2018-12-20T03:06:12.997Z,29.57
2018-12-20T03:08:41.405Z,30.20
2018-12-20T03:11:09.917Z,30.43
2018-12-20T03:13:38.202Z,25.43
2018-12-20T03:16:06.431Z,28.93
2018-12-20T03:18:34.895Z,29.13
2018-12-20T03:21:03.638Z,25.07
2018-12-20T03:23:31.956Z,24.67
2018-12-20T03:26:00.475Z,21.00
2018-12-20T03:28:28.765Z,23.03
2018-12-20T03:30:57.156Z,22.83
2018-12-20T03:33:25.389Z,26.50
2018-12-20T03:35:54.160Z,27.60
2018-12-20T03:38:22.349Z,25.20
2018-12-20T03:40:50.769Z,31.97
2018-12-20T03:43:18.983Z,24.57
2018-12-20T03:45:47.146Z,31.20
2018-12-20T03:48:15.691Z,23.63
2018-12-20T03:50:44.126Z,22.23
2018-12-20T03:53:12.599Z,31.60
2018-12-20T03:55:40.836Z,29.80
2018-12-20T03:58:09.219Z,25.83
2018-12-20T04:00:37.532Z,30.23
2018-12-20T04:03:05.736Z,29.17
2018-12-20T04:05:33.895Z,29.27
2018-12-20T04:08:02.157Z,27.87
2018-12-20T04:10:30.400Z,28.60
2018-12-20T04:12:59.043Z,25.53
2018-12-20T04:15:27.357Z,30.67
2018-12-20T04:17:56.191Z,26.27
2018-12-20T04:20:24.491Z,29.50
2018-12-20T04:22:52.992Z,25.33
2018-12-20T04:25:21.418Z,17.43
2018-12-20T04:27:49.933Z,24.00
2018-12-20T04:30:18.514Z,27.23
2018-12-20T04:32:47.126Z,27.07
2018-12-20T04:35:15.454Z,21.33
2018-12-20T04:37:43.607Z,18.67
2018-12-20T04:40:11.876Z,16.40
2018-12-20T04:42:40.234Z,19.20
2018-12-20T04:45:08.892Z,26.80
2018-12-20T04:47:37.480Z,25.63
2018-12-20T04:50:06.142Z,26.90
2018-12-20T04:52:34.732Z,23.43
2018-12-20T04:55:03.491Z,27.37
2018-12-20T04:57:31.731Z,28.37
2018-12-20T05:00:00.430Z,29.47
2018-12-20T05:02:28.857Z,29.00
2018-12-20T05:04:57.389Z,26.03
2018-12-20T05:07:25.903Z,23.97
2018-12-20T05:09:54.184Z,30.27
2018-12-20T05:12:22.564Z,29.80
2018-12-20T05:14:51.015Z,26.70
2018-12-20T05:17:19.267Z,30.13
2018-12-20T05:19:47.584Z,30.07
2018-12-20T05:22:16.082Z,27.17
2018-12-20T05:24:44.417Z,28.03
2018-12-20T05:27:12.840Z,29.50
2018-12-20T05:29:41.164Z,25.23
2018-12-20T05:32:09.547Z,20.97
2018-12-20T05:34:37.826Z,27.57
2018-12-20T05:37:06.195Z,26.20
2018-12-20T05:39:34.645Z,32.67
2018-12-20T05:42:03.095Z,25.73
2018-12-20T05:44:31.260Z,27.80
2018-12-20T05:46:59.727Z,21.90
2018-12-20T05:49:27.991Z,18.07
2018-12-20T05:51:56.208Z,29.07
2018-12-20T05:54:24.497Z,27.17
2018-12-20T05:56:52.782Z,29.37
2018-12-20T05:59:21.335Z,26.13
2018-12-20T06:01:49.703Z,25.07
2018-12-20T06:04:17.876Z,27.87
2018-12-20T06:06:46.209Z,30.80
2018-12-20T06:09:14.769Z,24.90
2018-12-20T06:11:43.134Z,28.83
2018-12-20T06:14:11.685Z,33.13
2018-12-20T06:16:39.932Z,30.60
2018-12-20T06:19:08.408Z,31.07
2018-12-20T06:21:36.667Z,33.07
2018-12-20T06:24:04.903Z,29.77
2018-12-20T06:26:33.139Z,26.80
2018-12-20T06:29:01.291Z,32.53
2018-12-20T06:31:30.160Z,34.13
2018-12-20T06:33:58.419Z,31.87
2018-12-20T06:36:26.612Z,31.90
2018-12-20T06:38:54.828Z,30.03
2018-12-20T06:41:22.979Z,25.53
2018-12-20T06:43:51.228Z,30.03
2018-12-20T06:46:21.341Z,27.47
2018-12-20T06:48:49.796Z,30.10
2018-12-20T06:51:18.072Z,28.70
2018-12-20T06:53:46.391Z,26.80
2018-12-20T06:56:14.777Z,29.63
2018-12-20T06:58:43.047Z,30.07
2018-12-20T07:01:11.212Z,30.73
2018-12-20T07:03:39.458Z,32.83
2018-12-20T07:06:07.773Z,30.23
2018-12-20T07:08:36.068Z,27.70
2018-12-20T07:11:04.319Z,32.23
2018-12-20T07:13:32.669Z,29.53
2018-12-20T07:16:00.872Z,30.47
2018-12-20T07:18:29.034Z,23.63
2018-12-20T07:20:57.228Z,29.80
2018-12-20T07:23:25.419Z,28.73
2018-12-20T07:25:53.580Z,24.63
2018-12-20T07:28:22.668Z,26.60
2018-12-20T07:30:50.826Z,26.60
2018-12-20T07:33:19.039Z,27.87
2018-12-20T07:35:47.280Z,26.63
2018-12-20T07:38:15.443Z,27.33
2018-12-20T07:40:43.701Z,32.13
2018-12-20T07:43:11.866Z,23.33
2018-12-20T07:45:40.120Z,31.27
2018-12-20T07:48:08.293Z,50.10
2018-12-20T07:50:36.456Z,27.47
2018-12-20T07:53:04.735Z,28.90
2018-12-20T07:55:33.099Z,28.17
2018-12-20T07:58:01.262Z,32.83
2018-12-20T08:00:33.591Z,29.27
2018-12-20T08:03:01.949Z,30.30
2018-12-20T08:05:30.120Z,32.30
2018-12-20T08:07:58.279Z,30.33
2018-12-20T08:10:26.562Z,18.20
2018-12-20T08:12:54.839Z,30.33
2018-12-20T08:15:23.019Z,29.97
2018-12-20T08:17:51.287Z,31.43
2018-12-20T08:20:19.455Z,30.40
2018-12-20T08:22:47.613Z,25.90
2018-12-20T08:25:15.783Z,30.90
2018-12-20T08:27:44.308Z,25.23
2018-12-20T08:30:12.603Z,28.30
2018-12-20T08:32:40.764Z,23.83
2018-12-20T08:35:08.937Z,29.03
2018-12-20T08:37:37.092Z,29.67
2018-12-20T08:40:07.040Z,28.77
2018-12-20T08:42:35.289Z,28.50
2018-12-20T08:45:03.727Z,16.57
2018-12-20T08:47:32.013Z,23.23
2018-12-20T08:50:00.172Z,23.20
2018-12-20T08:52:28.427Z,23.33
2018-12-20T08:54:56.679Z,19.20
2018-12-20T08:57:24.860Z,20.63
2018-12-20T08:59:53.129Z,22.67
2018-12-20T09:02:21.420Z,21.63
2018-12-20T09:04:49.760Z,19.43
2018-12-20T09:07:17.920Z,10.27
2018-12-20T09:09:46.071Z,11.67
2018-12-20T09:12:14.232Z,2.23
2018-12-20T09:14:42.394Z,2.00
2018-12-20T09:17:10.552Z,5.43
2018-12-20T09:19:38.712Z,3.97
2018-12-20T09:22:06.972Z,10.93
2018-12-20T09:24:35.131Z,1.93
2018-12-20T09:27:03.291Z,2.33
2018-12-20T09:29:31.451Z,4.93
2018-12-20T09:31:59.692Z,3.60
2018-12-20T09:34:27.973Z,3.20
2018-12-20T09:36:56.210Z,1.60
2018-12-20T09:39:24.364Z,2.60
2018-12-20T09:41:52.536Z,1.90
2018-12-20T09:44:20.775Z,2.00
2018-12-20T09:46:48.953Z,3.33
2018-12-20T09:49:17.340Z,2.20
2018-12-20T09:51:45.520Z,2.07
2018-12-20T09:54:13.680Z,1.80
2018-12-20T09:56:41.924Z,1.90
2018-12-20T09:59:10.199Z,2.53
2018-12-20T10:01:38.349Z,1.90
2018-12-20T10:04:06.645Z,2.00
2018-12-20T10:06:34.832Z,1.50
2018-12-20T10:09:03.379Z,1.50
2018-12-20T10:11:31.532Z,1.40
2018-12-20T10:13:59.856Z,2.30
2018-12-20T10:16:28.012Z,1.80
2018-12-20T10:18:56.191Z,1.40
2018-12-20T10:21:24.436Z,1.63
2018-12-20T10:23:52.671Z,1.63
2018-12-20T10:26:20.839Z,1.30
2018-12-20T10:28:49.033Z,1.23
2018-12-20T10:31:17.461Z,1.50
2018-12-20T10:33:45.635Z,1.50
2018-12-20T10:36:13.856Z,1.40
2018-12-20T10:38:42.025Z,1.47
2018-12-20T10:41:10.176Z,1.20
2018-12-20T10:43:38.336Z,1.47
2018-12-20T10:46:06.620Z,1.10
2018-12-20T10:48:34.784Z,0.80
2018-12-20T10:51:03.122Z,1.40
2018-12-20T10:53:31.551Z,1.43
2018-12-20T10:55:59.712Z,1.10
2018-12-20T10:58:27.881Z,1.10
2018-12-20T11:01:01.864Z,1.10
2018-12-20T11:03:35.723Z,1.07
2018-12-20T11:06:08.816Z,1.10
2018-12-20T11:08:41.258Z,0.80
2018-12-20T11:11:15.484Z,0.90
2018-12-20T11:13:43.667Z,0.77
2018-12-20T11:16:12.132Z,1.07
2018-12-20T11:18:40.291Z,1.70
2018-12-20T11:21:08.451Z,1.13
2018-12-20T11:23:36.612Z,1.67
2018-12-20T11:26:04.799Z,3.43
2018-12-20T11:28:33.011Z,1.37
2018-12-20T11:31:01.187Z,0.80
2018-12-20T11:33:29.339Z,1.00
2018-12-20T11:35:57.647Z,1.03
2018-12-20T11:38:25.887Z,1.20
2018-12-20T11:40:54.758Z,0.90
2018-12-20T11:43:22.969Z,1.40
2018-12-20T11:45:51.128Z,1.63
2018-12-20T11:48:19.301Z,0.87
2018-12-20T11:50:47.455Z,1.20
2018-12-20T11:53:15.688Z,1.27
2018-12-20T11:55:43.855Z,1.30
2018-12-20T11:58:12.011Z,1.53
2018-12-20T12:00:40.179Z,1.77
2018-12-20T12:03:08.479Z,10.83
2018-12-20T12:05:36.720Z,3.60
2018-12-20T12:08:04.896Z,2.87
2018-12-20T12:10:33.063Z,6.77
2018-12-20T12:13:01.299Z,3.03
2018-12-20T12:15:29.477Z,20.33
2018-12-20T12:17:57.688Z,12.07
2018-12-20T12:20:25.935Z,4.57
2018-12-20T12:22:54.104Z,1.63
2018-12-20T12:25:22.264Z,9.00
2018-12-20T12:27:50.443Z,2.40
2018-12-20T12:30:18.636Z,6.03
2018-12-20T12:32:46.920Z,7.47
2018-12-20T12:35:15.107Z,2.80
2018-12-20T12:37:43.369Z,2.57
2018-12-20T12:40:11.636Z,1.60
2018-12-20T12:42:39.827Z,1.00
2018-12-20T12:45:08.123Z,0.70
2018-12-20T12:47:41.888Z,3.00
2018-12-20T12:50:10.154Z,0.60
2018-12-20T12:52:38.367Z,1.00
2018-12-20T12:55:06.641Z,0.53
2018-12-20T12:57:36.432Z,0.50
2018-12-20T13:00:06.028Z,1.30
2018-12-20T13:02:34.406Z,1.37
2018-12-20T13:05:02.710Z,0.80
2018-12-20T13:07:31.140Z,1.40
2018-12-20T13:09:59.431Z,0.97
2018-12-20T13:12:27.734Z,0.70
2018-12-20T13:14:56.000Z,1.10
2018-12-20T13:17:24.261Z,0.97
2018-12-20T13:19:52.555Z,0.90
2018-12-20T13:22:20.755Z,1.00
2018-12-20T13:24:49.001Z,1.03
2018-12-20T13:27:17.213Z,1.20
2018-12-20T13:29:45.494Z,1.07
2018-12-20T13:32:13.758Z,0.60
2018-12-20T13:34:41.959Z,0.90
2018-12-20T13:37:15.773Z,1.30
2018-12-20T13:39:40.563Z,1.37
2018-12-20T13:42:08.724Z,1.00
2018-12-20T13:44:36.916Z,1.60
2018-12-20T13:47:05.288Z,1.13
2018-12-20T13:49:33.477Z,1.50
2018-12-20T13:52:01.660Z,1.30
2018-12-20T13:54:29.911Z,0.90
2018-12-20T13:56:58.255Z,0.97
2018-12-20T13:59:26.564Z,0.73
2018-12-20T14:01:54.756Z,0.70
2018-12-20T14:04:23.019Z,1.10
2018-12-20T14:06:51.196Z,0.97
2018-12-20T14:09:19.921Z,0.80
2018-12-20T14:11:48.444Z,0.90
2018-12-20T14:14:16.703Z,1.10
2018-12-20T14:16:44.996Z,0.90
2018-12-20T14:19:13.187Z,1.00
2018-12-20T14:21:41.380Z,0.93
2018-12-20T14:24:09.764Z,0.83
2018-12-20T14:26:37.935Z,0.97
2018-12-20T14:29:06.180Z,1.20
2018-12-20T14:31:34.380Z,1.23
2018-12-20T14:34:02.627Z,1.83
2018-12-20T14:36:31.037Z,2.60
2018-12-20T14:38:59.350Z,3.97
2018-12-20T14:41:27.675Z,1.77
2018-12-20T14:43:55.880Z,4.30
2018-12-20T14:46:24.078Z,1.10
2018-12-20T14:48:52.259Z,1.70
2018-12-20T14:51:20.504Z,1.53
2018-12-20T14:53:48.704Z,1.47
2018-12-20T14:56:16.907Z,1.17
2018-12-20T14:58:45.096Z,1.70
2018-12-20T15:01:13.383Z,1.40
2018-12-20T15:03:41.620Z,1.30
2018-12-20T15:06:09.947Z,1.10
2018-12-20T15:08:38.233Z,1.30
2018-12-20T15:11:06.528Z,1.73
2018-12-20T15:13:34.832Z,5.33
2018-12-20T15:16:03.433Z,2.80
2018-12-20T15:18:31.623Z,2.90
2018-12-20T15:20:59.912Z,2.63
2018-12-20T15:23:28.182Z,3.83
2018-12-20T15:25:56.711Z,2.53
2018-12-20T15:28:24.896Z,1.63
2018-12-20T15:30:53.091Z,1.40
2018-12-20T15:33:21.297Z,2.07
2018-12-20T15:35:49.575Z,1.33
2018-12-20T15:38:17.776Z,1.30
2018-12-20T15:40:46.053Z,1.30
2018-12-20T15:43:14.360Z,1.33
2018-12-20T15:45:42.663Z,1.37
2018-12-20T15:48:10.944Z,1.33
2018-12-20T15:50:39.132Z,1.70
2018-12-20T15:53:07.340Z,1.40
2018-12-20T15:55:35.528Z,1.17
2018-12-20T15:58:03.816Z,1.60
2018-12-20T16:00:32.133Z,1.60
2018-12-20T16:03:00.404Z,2.33
2018-12-20T16:05:28.776Z,3.33
2018-12-20T16:08:01.139Z,3.63
2018-12-20T16:10:29.572Z,3.30
2018-12-20T16:12:58.655Z,2.30
2018-12-20T16:15:26.938Z,2.13
2018-12-20T16:17:55.283Z,2.33
2018-12-20T16:20:23.468Z,2.20
2018-12-20T16:22:51.713Z,1.80
2018-12-20T16:25:20.006Z,1.60
2018-12-20T16:27:48.404Z,2.87
2018-12-20T16:30:16.584Z,2.37
2018-12-20T16:32:44.888Z,2.20
2018-12-20T16:35:13.117Z,2.60
2018-12-20T16:37:41.357Z,3.23
2018-12-20T16:40:09.788Z,3.80
2018-12-20T16:42:37.981Z,3.20
2018-12-20T16:45:07.259Z,2.37
2018-12-20T16:47:35.544Z,5.43
2018-12-20T16:50:04.408Z,2.40
2018-12-20T16:52:32.587Z,2.70
2018-12-20T16:55:00.876Z,3.53
2018-12-20T16:57:29.060Z,2.50
2018-12-20T16:59:57.327Z,3.00
2018-12-20T17:02:25.592Z,3.20
2018-12-20T17:04:53.783Z,2.13
2018-12-20T17:07:22.052Z,2.30
2018-12-20T17:09:50.233Z,1.87
2018-12-20T17:12:18.421Z,2.17
2018-12-20T17:14:46.612Z,1.80
2018-12-20T17:17:14.799Z,1.57
2018-12-20T17:19:43.036Z,2.10
2018-12-20T17:22:11.263Z,2.10
2018-12-20T17:24:39.483Z,1.33
2018-12-20T17:27:08.740Z,1.20
2018-12-20T17:29:37.203Z,1.20
2018-12-20T17:32:05.423Z,1.33
2018-12-20T17:34:33.709Z,1.50
2018-12-20T17:37:01.906Z,1.17
2018-12-20T17:39:30.264Z,1.50
2018-12-20T17:41:58.560Z,1.37
2018-12-20T17:44:26.925Z,1.47
2018-12-20T17:46:55.116Z,1.40
2018-12-20T17:49:30.470Z,1.50
2018-12-20T17:51:53.709Z,1.40
2018-12-20T17:54:21.976Z,1.40
2018-12-20T17:56:50.376Z,1.50
2018-12-20T17:59:18.636Z,1.40
2018-12-20T18:01:46.927Z,1.30
2018-12-20T18:04:15.189Z,1.60
2018-12-20T18:06:43.380Z,1.57
2018-12-20T18:09:11.656Z,1.70
2018-12-20T18:11:40.036Z,1.80
2018-12-20T18:14:08.261Z,1.83
2018-12-20T18:16:36.483Z,2.63
2018-12-20T18:19:04.864Z,1.63
2018-12-20T18:21:33.424Z,2.10
2018-12-20T18:24:01.596Z,1.67
2018-12-20T18:26:29.923Z,1.33
2018-12-20T18:28:58.166Z,1.30
2018-12-20T18:31:26.369Z,1.10
2018-12-20T18:33:54.620Z,1.57
2018-12-20T18:36:22.876Z,1.43
2018-12-20T18:38:51.168Z,1.20
2018-12-20T18:41:19.451Z,1.20
2018-12-20T18:43:47.717Z,1.17
2018-12-20T18:46:15.984Z,1.60
2018-12-20T18:48:44.255Z,1.10
2018-12-20T18:51:12.524Z,1.20
2018-12-20T18:53:40.848Z,1.37
2018-12-20T18:56:09.232Z,1.40
2018-12-20T18:58:37.500Z,1.77
2018-12-20T19:01:05.883Z,1.40
2018-12-20T19:03:34.291Z,1.30
2018-12-20T19:06:02.564Z,1.37
2018-12-20T19:08:30.811Z,1.40
2018-12-20T19:10:59.101Z,1.30
2018-12-20T19:13:27.411Z,1.50
2018-12-20T19:15:55.646Z,1.17
2018-12-20T19:18:24.171Z,1.50
2018-12-20T19:20:52.359Z,1.60
2018-12-20T19:23:20.652Z,1.77
2018-12-20T19:25:49.019Z,1.47
2018-12-20T19:28:17.308Z,1.23
2018-12-20T19:30:45.496Z,1.50
2018-12-20T19:33:13.720Z,1.47
2018-12-20T19:35:41.971Z,1.33
2018-12-20T19:38:10.154Z,1.57
2018-12-20T19:40:38.561Z,1.60
2018-12-20T19:43:07.348Z,1.20
2018-12-20T19:45:35.532Z,1.50
2018-12-20T19:48:03.810Z,1.70
2018-12-20T19:50:31.998Z,1.63
2018-12-20T19:53:00.315Z,1.50
2018-12-20T19:55:28.655Z,1.97
2018-12-20T19:57:56.969Z,1.40
2018-12-20T20:00:25.216Z,1.60
2018-12-20T20:02:53.395Z,1.67
2018-12-20T20:05:21.588Z,1.43
2018-12-20T20:07:49.772Z,1.53
2018-12-20T20:10:18.416Z,1.90
2018-12-20T20:12:46.729Z,1.90
2018-12-20T20:15:16.696Z,1.57
2018-12-20T20:17:45.446Z,1.80
2018-12-20T20:20:14.486Z,1.47
2018-12-20T20:22:43.151Z,1.60
2018-12-20T20:25:11.532Z,1.60
2018-12-20T20:27:39.748Z,1.77
2018-12-20T20:30:13.520Z,1.67
2018-12-20T20:32:41.851Z,1.77
2018-12-20T20:35:10.176Z,1.60
2018-12-20T20:37:38.361Z,1.80
2018-12-20T20:40:08.843Z,1.70
2018-12-20T20:42:37.024Z,1.50
2018-12-20T20:45:06.449Z,2.00
2018-12-20T20:47:34.660Z,1.60
2018-12-20T20:50:03.072Z,1.50
2018-12-20T20:52:31.276Z,1.60
2018-12-20T20:54:59.495Z,1.40
2018-12-20T20:57:27.828Z,1.80
2018-12-20T20:59:56.088Z,2.67
2018-12-20T21:02:24.376Z,1.73
2018-12-20T21:04:52.567Z,1.70
2018-12-20T21:07:20.827Z,2.00
2018-12-20T21:09:49.208Z,1.57
2018-12-20T21:12:22.832Z,1.80
2018-12-20T21:14:52.452Z,1.70
2018-12-20T21:17:17.829Z,1.63
2018-12-20T21:19:46.079Z,1.60
2018-12-20T21:22:14.392Z,1.63
2018-12-20T21:24:42.603Z,1.80
2018-12-20T21:27:10.820Z,1.40
2018-12-20T21:29:39.008Z,1.47
2018-12-20T21:32:07.233Z,1.50
2018-12-20T21:34:35.477Z,1.57
2018-12-20T21:37:03.671Z,1.37
2018-12-20T21:39:31.851Z,1.70
2018-12-20T21:42:00.096Z,1.27
2018-12-20T21:44:28.371Z,1.50
2018-12-20T21:46:56.572Z,1.70
2018-12-20T21:49:24.756Z,1.50
2018-12-20T21:51:52.965Z,1.27
2018-12-20T21:54:21.171Z,1.43
2018-12-20T21:56:49.511Z,1.57
2018-12-20T21:59:17.710Z,1.77
2018-12-20T22:01:45.884Z,1.70
2018-12-20T22:04:14.072Z,1.60
2018-12-20T22:06:42.255Z,1.30
2018-12-20T22:09:10.456Z,1.40
2018-12-20T22:11:38.634Z,1.90
2018-12-20T22:14:06.824Z,1.30
2018-12-20T22:16:35.007Z,1.50
2018-12-20T22:19:03.212Z,1.93
2018-12-20T22:21:31.404Z,1.67
2018-12-20T22:23:59.601Z,1.40
2018-12-20T22:26:27.776Z,1.33
2018-12-20T22:28:55.967Z,1.90
2018-12-20T22:31:24.159Z,2.00
2018-12-20T22:33:52.343Z,2.10
2018-12-20T22:36:20.532Z,1.40
2018-12-20T22:38:48.723Z,1.60
2018-12-20T22:41:16.915Z,1.87
2018-12-20T22:43:45.117Z,2.00
2018-12-20T22:46:13.296Z,1.47
2018-12-20T22:48:41.492Z,1.43
2018-12-20T22:51:09.764Z,1.60
2018-12-20T22:53:37.967Z,1.53
2018-12-20T22:56:06.156Z,1.43
2018-12-20T22:58:34.364Z,1.50
2018-12-20T23:01:04.036Z,2.27
2018-12-20T23:03:32.308Z,2.10
2018-12-20T23:06:01.452Z,1.83
2018-12-20T23:08:30.040Z,1.77
2018-12-20T23:10:58.240Z,2.00
2018-12-20T23:13:26.426Z,1.50
2018-12-20T23:15:54.625Z,1.47
2018-12-20T23:18:22.895Z,1.93
2018-12-20T23:20:51.188Z,1.40
2018-12-20T23:23:19.363Z,1.97
2018-12-20T23:25:47.579Z,1.93
2018-12-20T23:28:15.756Z,2.13
2018-12-20T23:30:43.951Z,1.70
2018-12-20T23:33:12.135Z,1.67
2018-12-20T23:35:40.333Z,1.77
2018-12-20T23:38:08.519Z,1.53
2018-12-20T23:40:36.715Z,2.00
2018-12-20T23:43:04.901Z,1.80
2018-12-20T23:45:33.183Z,1.63
2018-12-20T23:48:01.372Z,1.80
2018-12-20T23:50:29.576Z,1.63
2018-12-20T23:52:57.765Z,1.60
2018-12-20T23:55:25.971Z,1.93
2018-12-20T23:57:54.321Z,1.87
